createdAt,value
2023-04-26T00:00:53.775Z,39.05
2023-04-26T00:05:55.960Z,39.12
2023-04-26T00:10:57.872Z,39.01
2023-04-26T00:15:59.761Z,39.04
2023-04-26T00:21:01.811Z,38.80
2023-04-26T00:26:04.263Z,39.05
2023-04-26T00:31:06.078Z,38.85
2023-04-26T00:36:08.086Z,38.94
2023-04-26T00:41:09.861Z,38.80
2023-04-26T00:46:12.800Z,39.43
2023-04-26T00:51:15.743Z,39.39
2023-04-26T00:56:17.683Z,39.42
2023-04-26T01:01:19.972Z,39.33
2023-04-26T01:06:22.885Z,39.03
2023-04-26T01:11:25.209Z,39.19
2023-04-26T01:16:28.545Z,39.16
2023-04-26T01:21:30.362Z,38.98
2023-04-26T01:26:32.522Z,39.18
2023-04-26T01:31:34.384Z,39.27
2023-04-26T01:36:36.384Z,39.10
2023-04-26T01:41:38.246Z,39.11
2023-04-26T01:46:40.189Z,38.97
2023-04-26T01:51:42.226Z,38.91
2023-04-26T01:56:44.038Z,39.16
2023-04-26T02:01:46.477Z,38.92
2023-04-26T02:06:48.288Z,38.94
2023-04-26T02:11:50.064Z,38.93
2023-04-26T02:16:52.128Z,38.98
2023-04-26T02:21:58.582Z,38.83
2023-04-26T02:27:04.079Z,39.04
2023-04-26T02:32:06.064Z,38.96
2023-04-26T02:37:07.880Z,39.10
2023-04-26T02:42:12.496Z,39.04
2023-04-26T02:47:14.365Z,38.77
2023-04-26T02:52:16.107Z,39.01
2023-04-26T02:57:17.868Z,39.21
2023-04-26T03:02:19.887Z,38.91
2023-04-26T03:07:21.764Z,38.97
2023-04-26T03:12:23.542Z,39.24
2023-04-26T03:17:25.364Z,38.96
2023-04-26T03:22:27.187Z,39.15
2023-04-26T03:27:28.982Z,38.82
2023-04-26T03:32:31.530Z,39.17
2023-04-26T03:37:33.411Z,38.94
2023-04-26T03:42:35.251Z,38.92
2023-04-26T03:47:37.010Z,39.00
2023-04-26T03:52:38.824Z,38.88
2023-04-26T03:57:40.592Z,38.91
2023-04-26T04:02:43.124Z,39.21
2023-04-26T04:07:45.291Z,39.08
2023-04-26T04:12:47.099Z,38.94
2023-04-26T04:17:48.931Z,39.16
2023-04-26T04:22:51.472Z,38.92
2023-04-26T04:27:53.655Z,38.97
2023-04-26T04:32:56.110Z,39.17
2023-04-26T04:37:57.936Z,38.90
2023-04-26T04:43:01.289Z,39.03
2023-04-26T04:48:05.479Z,38.92
2023-04-26T04:53:07.338Z,38.96
2023-04-26T04:58:09.135Z,38.90
2023-04-26T05:03:11.077Z,38.85
2023-04-26T05:08:13.181Z,39.17
2023-04-26T05:13:14.959Z,38.78
2023-04-26T05:18:16.757Z,39.02
2023-04-26T05:23:18.494Z,38.89
2023-04-26T05:28:20.245Z,38.85
2023-04-26T05:33:22.148Z,38.89
2023-04-26T05:38:24.129Z,38.78
2023-04-26T05:43:26.035Z,39.05
2023-04-26T05:48:28.022Z,39.10
2023-04-26T05:53:29.871Z,39.10
2023-04-26T05:58:33.979Z,39.21
2023-04-26T06:03:36.018Z,39.16
2023-04-26T06:08:38.758Z,39.13
2023-04-26T06:13:40.569Z,39.11
2023-04-26T06:18:42.366Z,38.87
2023-04-26T06:23:44.157Z,39.17
2023-04-26T06:28:45.965Z,39.09
2023-04-26T06:33:47.768Z,39.14
2023-04-26T06:38:49.639Z,39.17
2023-04-26T06:43:51.780Z,38.93
2023-04-26T06:48:55.584Z,39.08
2023-04-26T06:53:59.322Z,38.83
2023-04-26T06:59:05.439Z,39.03
2023-04-26T07:04:13.350Z,39.00
2023-04-26T07:09:15.221Z,39.18
2023-04-26T07:14:17.625Z,38.91
2023-04-26T07:19:19.956Z,38.35
2023-04-26T07:24:21.835Z,37.68
2023-04-26T07:29:23.855Z,37.36
2023-04-26T07:34:25.783Z,36.87
2023-04-26T07:39:27.705Z,36.88
2023-04-26T07:44:29.707Z,36.70
2023-04-26T07:49:31.486Z,37.18
2023-04-26T07:54:33.263Z,36.89
2023-04-26T07:59:35.023Z,36.95
2023-04-26T08:04:37.155Z,36.76
2023-04-26T08:09:39.198Z,36.98
2023-04-26T08:14:41.309Z,36.92
2023-04-26T08:19:43.084Z,36.98
2023-04-26T08:24:50.415Z,36.51
2023-04-26T08:29:52.223Z,36.72
2023-04-26T08:34:54.017Z,36.66
2023-04-26T08:39:55.919Z,36.49
2023-04-26T08:45:02.476Z,36.30
2023-04-26T08:50:05.392Z,36.64
2023-04-26T08:55:10.190Z,36.29
2023-04-26T09:00:13.756Z,36.33
2023-04-26T09:05:16.101Z,36.33
2023-04-26T09:10:22.535Z,36.18
2023-04-26T09:15:26.714Z,35.91
2023-04-26T09:20:30.510Z,35.97
2023-04-26T09:25:32.571Z,35.85
2023-04-26T09:30:40.180Z,35.88
2023-04-26T09:35:43.977Z,35.74
2023-04-26T09:40:48.330Z,35.60
2023-04-26T09:45:55.672Z,35.29
2023-04-26T09:51:18.676Z,35.41
2023-04-26T09:56:21.231Z,35.11
2023-04-26T10:01:23.620Z,35.30
2023-04-26T10:06:25.674Z,35.11
2023-04-26T10:11:27.761Z,35.12
2023-04-26T10:16:30.392Z,35.10
2023-04-26T10:21:38.267Z,34.82
2023-04-26T10:26:57.099Z,34.89
2023-04-26T10:32:16.697Z,35.04
2023-04-26T10:37:18.840Z,35.04
2023-04-26T10:42:25.832Z,34.83
2023-04-26T10:47:37.536Z,34.88
2023-04-26T10:53:03.862Z,35.24
2023-04-26T10:58:28.247Z,34.93
2023-04-26T11:03:31.412Z,34.71
2023-04-26T11:08:34.506Z,34.88
2023-04-26T11:13:38.925Z,35.03
2023-04-26T11:18:43.647Z,34.58
2023-04-26T11:23:54.489Z,34.81
2023-04-26T11:28:56.252Z,35.00
2023-04-26T11:34:07.227Z,34.69
2023-04-26T11:39:09.109Z,34.64
2023-04-26T11:44:12.836Z,34.61
2023-04-26T11:49:16.438Z,34.45
2023-04-26T11:54:32.466Z,34.45
2023-04-26T11:59:34.236Z,34.29
2023-04-26T12:04:37.953Z,34.63
2023-04-26T12:09:44.736Z,34.61
2023-04-26T12:14:47.520Z,34.22
2023-04-26T12:19:50.372Z,34.35
2023-04-26T12:25:05.688Z,34.61
2023-04-26T12:30:08.249Z,34.53
2023-04-26T12:35:10.086Z,34.54
2023-04-26T12:40:12.608Z,34.65
2023-04-26T12:45:14.484Z,34.49
2023-04-26T12:50:18.614Z,34.38
2023-04-26T12:55:21.417Z,34.43
2023-04-26T13:00:23.209Z,34.71
2023-04-26T13:05:25.701Z,34.79
2023-04-26T13:10:27.701Z,34.79
2023-04-26T13:15:30.208Z,35.36
2023-04-26T13:20:31.985Z,35.58
2023-04-26T13:25:33.835Z,35.66
2023-04-26T13:30:35.581Z,36.09
2023-04-26T13:35:37.348Z,36.08
2023-04-26T13:40:39.321Z,36.38
2023-04-26T13:45:41.289Z,35.74
2023-04-26T13:50:43.162Z,35.54
2023-04-26T13:55:44.937Z,35.67
2023-04-26T14:00:46.796Z,35.51
2023-04-26T14:05:48.591Z,35.46
2023-04-26T14:10:50.433Z,35.52
2023-04-26T14:15:52.412Z,35.38
2023-04-26T14:20:54.214Z,35.13
2023-04-26T14:25:56.199Z,35.20
2023-04-26T14:30:57.988Z,35.37
2023-04-26T14:35:59.847Z,35.21
2023-04-26T14:41:01.942Z,35.28
2023-04-26T14:46:03.963Z,36.50
2023-04-26T14:51:05.881Z,36.02
2023-04-26T14:56:08.511Z,36.26
2023-04-26T15:01:10.822Z,36.05
2023-04-26T15:06:12.801Z,35.93
2023-04-26T15:11:14.652Z,35.67
2023-04-26T15:16:17.101Z,35.58
2023-04-26T15:21:19.994Z,35.47
2023-04-26T15:26:22.194Z,34.09
2023-04-26T15:31:24.542Z,34.55
2023-04-26T15:36:26.415Z,34.42
2023-04-26T15:41:28.179Z,34.51
2023-04-26T15:46:29.970Z,34.37
2023-04-26T15:51:32.120Z,34.36
2023-04-26T15:56:33.920Z,34.36
2023-04-26T16:01:35.834Z,34.13
2023-04-26T16:06:37.767Z,34.23
2023-04-26T16:11:39.594Z,34.30
2023-04-26T16:16:41.669Z,34.28
2023-04-26T16:21:43.524Z,34.92
2023-04-26T16:26:45.406Z,34.63
2023-04-26T16:31:47.249Z,34.83
2023-04-26T16:36:49.084Z,34.75
2023-04-26T16:41:54.087Z,34.42
2023-04-26T16:46:56.526Z,34.39
2023-04-26T16:51:59.189Z,34.32
2023-04-26T16:57:01.222Z,34.26
2023-04-26T17:02:03.086Z,33.94
2023-04-26T17:07:04.950Z,34.25
2023-04-26T17:12:07.696Z,34.52
2023-04-26T17:17:09.579Z,37.20
2023-04-26T17:22:11.584Z,37.38
2023-04-26T17:27:13.377Z,37.37
2023-04-26T17:32:15.186Z,37.17
2023-04-26T17:37:16.978Z,37.68
2023-04-26T17:42:18.846Z,38.19
2023-04-26T17:47:20.673Z,38.63
2023-04-26T17:52:22.577Z,38.73
2023-04-26T17:57:24.511Z,38.85
2023-04-26T18:02:26.663Z,38.96
2023-04-26T18:07:28.624Z,39.17
2023-04-26T18:12:32.121Z,39.31
2023-04-26T18:17:33.953Z,39.22
2023-04-26T18:22:35.718Z,39.43
2023-04-26T18:27:40.601Z,39.54
2023-04-26T18:32:42.434Z,39.59
2023-04-26T18:37:44.271Z,39.39
2023-04-26T18:42:46.356Z,39.49
2023-04-26T18:47:48.314Z,39.56
2023-04-26T18:52:50.098Z,39.42
2023-04-26T18:57:52.108Z,40.81
2023-04-26T19:02:55.317Z,40.10
2023-04-26T19:07:57.371Z,38.76
2023-04-26T19:12:59.307Z,38.13
2023-04-26T19:18:01.208Z,38.26
2023-04-26T19:23:03.000Z,40.97
2023-04-26T19:28:04.808Z,40.80
2023-04-26T19:33:07.548Z,39.58
2023-04-26T19:38:10.154Z,39.93
2023-04-26T19:43:12.301Z,39.37
2023-04-26T19:48:14.211Z,40.16
2023-04-26T19:53:16.100Z,39.38
2023-04-26T19:58:17.943Z,39.13
2023-04-26T20:03:20.014Z,39.16
2023-04-26T20:08:21.864Z,39.80
2023-04-26T20:13:23.727Z,39.82
2023-04-26T20:18:25.671Z,39.81
2023-04-26T20:23:27.732Z,39.99
2023-04-26T20:28:29.760Z,39.76
2023-04-26T20:33:32.019Z,39.71
2023-04-26T20:38:33.884Z,39.51
2023-04-26T20:43:35.701Z,40.15
2023-04-26T20:48:37.682Z,39.89
2023-04-26T20:53:39.456Z,39.38
2023-04-26T20:58:41.365Z,39.94
2023-04-26T21:03:43.305Z,39.84
2023-04-26T21:08:45.338Z,39.53
2023-04-26T21:13:48.433Z,39.56
2023-04-26T21:18:51.164Z,39.70
2023-04-26T21:23:53.063Z,39.61
2023-04-26T21:28:54.881Z,39.15
2023-04-26T21:33:56.707Z,39.12
2023-04-26T21:38:58.516Z,39.00
2023-04-26T21:44:00.441Z,39.20
2023-04-26T21:49:02.234Z,39.07
2023-04-26T21:54:04.069Z,38.99
2023-04-26T21:59:05.864Z,38.71
2023-04-26T22:04:07.785Z,39.03
2023-04-26T22:09:10.407Z,38.91
2023-04-26T22:14:12.365Z,38.97
2023-04-26T22:19:14.405Z,38.92
2023-04-26T22:24:16.430Z,38.66
2023-04-26T22:29:18.199Z,38.53
2023-04-26T22:34:20.484Z,38.55
2023-04-26T22:39:22.675Z,38.95
2023-04-26T22:44:24.443Z,38.79
2023-04-26T22:49:27.134Z,38.62
2023-04-26T22:54:28.998Z,38.87
2023-04-26T22:59:34.395Z,38.87
2023-04-26T23:04:36.270Z,38.67
2023-04-26T23:09:38.216Z,38.72
2023-04-26T23:14:40.059Z,38.69
2023-04-26T23:19:42.569Z,38.54
2023-04-26T23:24:44.517Z,38.72
2023-04-26T23:29:46.296Z,38.95
2023-04-26T23:34:48.046Z,38.56
2023-04-26T23:39:49.868Z,38.63
2023-04-26T23:44:51.653Z,38.70
2023-04-26T23:49:53.426Z,38.69
2023-04-26T23:54:55.343Z,38.66
2023-04-26T23:59:57.147Z,38.54
